Time;durP1;ratioP1;P1;durP2;ratioP2;P2;SDS_P1;SDS_P2;PMS_P1;PMS_P2;Temp;Humidity;BMP_temperature;BMP_pressure;BME280_temperature;BME280_humidity;BME280_pressure;Samples;Min_cycle;Max_cycle;Signal;HPM_P1;HPM_P2
2024/02/09 00:02:21;;;;;;;;;;;;;;;;;;5043957;28;20277;-67
2024/02/09 00:04:49;;;;;;;;;;;;;;;;;;5445667;22;20243;-66
2024/02/09 00:07:15;;;;;;;;;;;;;;;;;;4992149;28;20396;-69
2024/02/09 00:09:43;;;;;;;;;;;;;;;;;;4987661;28;20351;-69
2024/02/09 00:12:11;;;;;;;;;;;;;;;;;;4992131;28;19997;-67
2024/02/09 00:14:36;;;;;;;;;;;;;;;;;;4993194;28;20270;-68
2024/02/09 00:17:07;;;;;;;;;;;;;;;;;;4987763;28;22238;-67
2024/02/09 00:19:35;;;;;;;;;;;;;;;;;;5006666;28;19921;-69
2024/02/09 00:22:03;;;;;;;;;;;;;;;;;;4990018;28;19944;-67
2024/02/09 00:24:32;;;;;;;;;;;;;;;;;;5005830;28;19913;-67
2024/02/09 00:27:00;;;;;;;;;;;;;;;;;;4992703;28;20028;-67
2024/02/09 00:29:31;;;;;;;;;;;;;;;;;;4986954;28;20376;-69
2024/02/09 00:31:59;;;;;;;;;;;;;;;;;;4986980;28;19917;-69
2024/02/09 00:34:27;;;;;;;;;;;;;;;;;;4987696;28;19961;-69
2024/02/09 00:36:53;;;;;;;;;;;;;;;;;;4991708;28;20243;-68
2024/02/09 00:39:18;;;;;;;;;;;;;;;;;;4971678;28;19927;-66
2024/02/09 00:41:43;;;;;;;;;;;;;;;;;;4988334;28;19920;-69
2024/02/09 00:44:10;;;;;;;;;;;;;;;;;;4992575;28;20387;-70
2024/02/09 00:46:38;;;;;;;;;;;;;;;;;;4989989;28;20365;-68
2024/02/09 00:49:07;;;;;;;;;;;;;;;;;;4991172;28;19940;-68
2024/02/09 00:51:35;;;;;;;;;;;;;;;;;;4991051;28;19999;-68
2024/02/09 00:54:06;;;;;;;;;;;;;;;;;;4987344;28;19926;-68
2024/02/09 00:56:32;;;;;;;;;;;;;;;;;;4987561;28;19959;-74
2024/02/09 00:59:01;;;;;;;;;;;;;;;;;;4992165;28;19925;-71
2024/02/09 01:01:26;;;;;;;;;;;;;;;;;;5003841;28;19921;-68
2024/02/09 01:03:53;;;;;;;;;;;;;;;;;;4988221;28;19921;-67
2024/02/09 01:06:21;;;;;;;;;;;;;;;;;;4988657;28;20424;-68
2024/02/09 01:08:49;;;;;;;;;;;;;;;;;;4989111;28;19918;-68
2024/02/09 01:11:17;;;;;;;;;;;;;;;;;;4990945;28;19952;-70
2024/02/09 02:46:25;;;;;;;;;;;;;;;;;;4989186;28;19961;-70
2024/02/09 03:05:24;;;;;;;;;;;;;;;;;;4994424;28;19928;-70
2024/02/09 03:07:52;;;;;;;;;;;;;;;;;;4992554;28;20048;-69
2024/02/09 03:10:22;;;;;;;;;;;;;;;;;;4994019;28;19918;-71
2024/02/09 03:12:51;;;;;;;;;;;;;;;;;;4992853;28;20035;-69
2024/02/09 03:15:23;;;;;;;;;;;;;;;;;;4996600;28;19921;-70
2024/02/09 03:17:53;;;;;;;;;;;;;;;;;;4992392;28;20404;-71
2024/02/09 03:20:19;;;;;;;;;;;;;;;;;;4995227;28;20456;-69
2024/02/09 03:22:44;;;;;;;;;;;;;;;;;;4991086;28;20148;-70
2024/02/09 03:25:09;;;;;;;;;;;;;;;;;;4975705;28;19917;-68
2024/02/09 03:27:35;;;;;;;;;;;;;;;;;;4992617;28;20031;-73
2024/02/09 03:30:00;;;;;;;;;;;;;;;;;;4974653;28;19933;-68
2024/02/09 03:32:26;;;;;;;;;;;;;;;;;;4991169;28;19921;-68
2024/02/09 03:34:54;;;;;;;;;;;;;;;;;;4996328;28;19917;-68
2024/02/09 03:37:22;;;;;;;;;;;;;;;;;;4989708;28;19928;-75
2024/02/09 03:39:50;;;;;;;;;;;;;;;;;;4992591;28;19921;-66
2024/02/09 03:42:21;;;;;;;;;;;;;;;;;;4992603;28;20292;-74
2024/02/09 03:44:54;;;;;;;;;;;;;;;;;;4990660;28;19973;-68
2024/02/09 03:47:19;;;;;;;;;;;;;;;;;;4993508;28;19944;-68
2024/02/09 03:49:47;;;;;;;;;;;;;;;;;;4994209;28;20380;-68
2024/02/09 03:52:13;;;;;;;;;;;;;;;;;;4992436;28;19979;-69
2024/02/09 03:54:38;;;;;;;;;;;;;;;;;;4992583;28;19917;-68
2024/02/09 03:57:07;;;;;;;;;;;;;;;;;;4991170;28;19929;-68
2024/02/09 03:59:34;;;;;;;;;;;;;;;;;;4993407;28;19929;-69
2024/02/09 04:02:04;;;;;;;;;;;;;;;;;;4992535;28;20507;-70
2024/02/09 04:04:29;;;;;;;;;;;;;;;;;;4975183;28;19922;-68
2024/02/09 04:06:54;;;;;;;;;;;;;;;;;;4992464;28;19940;-69
2024/02/09 04:09:23;;;;;;;;;;;;;;;;;;4994031;28;19982;-69
2024/02/09 04:11:51;;;;;;;;;;;;;;;;;;4989151;28;20293;-70
2024/02/09 04:14:18;;;;;;;;;;;;;;;;;;4989296;28;19921;-69
2024/02/09 04:16:49;;;;;;;;;;;;;;;;;;4990666;28;19928;-69
2024/02/09 04:19:14;;;;;;;;;;;;;;;;;;4990330;28;19958;-71
2024/02/09 04:21:47;;;;;;;;;;;;;;;;;;4986150;28;20042;-69
2024/02/09 04:24:12;;;;;;;;;;;;;;;;;;4989004;28;19945;-68
2024/02/09 04:26:37;;;;;;;;;;;;;;;;;;4990085;28;20385;-68
2024/02/09 04:29:04;;;;;;;;;;;;;;;;;;4987187;28;20395;-67
2024/02/09 04:31:31;;;;;;;;;;;;;;;;;;4989961;28;20928;-70
2024/02/09 04:33:57;;;;;;;;;;;;;;;;;;4990141;28;19944;-70
2024/02/09 04:36:27;;;;;;;;;;;;;;;;;;4988210;28;19971;-69
2024/02/09 04:38:55;;;;;;;;;;;;;;;;;;4991050;28;20028;-68
2024/02/09 04:41:20;;;;;;;;;;;;;;;;;;4974187;28;19964;-67
2024/02/09 04:43:52;;;;;;;;;;;;;;;;;;4991451;28;19917;-67
2024/02/09 04:46:22;;;;;;;;;;;;;;;;;;4986368;28;19921;-75
2024/02/09 04:48:48;;;;;;;;;;;;;;;;;;4991149;28;20008;-70
2024/02/09 04:51:16;;;;;;;;;;;;;;;;;;4989569;28;20061;-69
2024/02/09 04:57:00;;;;;;;;;;;;;;;;;;4994802;28;19927;-68
2024/02/09 04:59:30;;;;;;;;;;;;;;;;;;4975822;28;19925;-68
2024/02/09 05:01:56;;;;;;;;;;;;;;;;;;4993737;28;19936;-75
2024/02/09 05:04:21;;;;;;;;;;;;;;;;;;4995561;28;19921;-68
2024/02/09 05:06:50;;;;;;;;;;;;;;;;;;5010138;28;20414;-74
2024/02/09 05:09:18;;;;;;;;;;;;;;;;;;4995272;28;20567;-69
2024/02/09 05:11:47;;;;;;;;;;;;;;;;;;4994752;28;20474;-69
2024/02/09 05:14:15;;;;;;;;;;;;;;;;;;4990771;28;19924;-74
2024/02/09 05:16:40;;;;;;;;;;;;;;;;;;4990608;28;20604;-71
2024/02/09 05:19:11;;;;;;;;;;;;;;;;;;4996030;28;19952;-69
2024/02/09 05:21:39;;;;;;;;;;;;;;;;;;5008468;28;19921;-69
2024/02/09 05:24:05;;;;;;;;;;;;;;;;;;4994945;28;19925;-68
2024/02/09 05:26:30;;;;;;;;;;;;;;;;;;4987799;28;19928;-69
2024/02/09 05:28:55;;;;;;;;;;;;;;;;;;4996017;28;19971;-68
2024/02/09 05:31:25;;;;;;;;;;;;;;;;;;4991329;28;20345;-68
2024/02/09 05:33:53;;;;;;;;;;;;;;;;;;4994403;28;19975;-68
2024/02/09 05:36:19;;;;;;;;;;;;;;;;;;4993954;28;20407;-69
2024/02/09 05:38:48;;;;;;;;;;;;;;;;;;4992900;28;19925;-74
2024/02/09 05:41:16;;;;;;;;;;;;;;;;;;4995217;28;19922;-72
2024/02/09 05:43:41;;;;;;;;;;;;;;;;;;4995190;28;20024;-71
2024/02/09 05:46:06;;;;;;;;;;;;;;;;;;4994412;28;19921;-71
2024/02/09 05:48:32;;;;;;;;;;;;;;;;;;4993730;28;19930;-74
2024/02/09 05:57:31;;;;;;;;;;;;;;;;;;4992699;28;19968;-72
2024/02/09 05:59:57;;;;;;;;;;;;;;;;;;4994806;28;19921;-71
2024/02/09 06:02:22;;;;;;;;;;;;;;;;;;4992375;28;20633;-71
2024/02/09 06:04:48;;;;;;;;;;;;;;;;;;4976189;28;19929;-72
2024/02/09 06:07:19;;;;;;;;;;;;;;;;;;4980592;28;20432;-71
2024/02/09 06:09:47;;;;;;;;;;;;;;;;;;4997119;28;19970;-71
2024/02/09 06:12:17;;;;;;;;;;;;;;;;;;4992584;28;19951;-72
2024/02/09 06:14:43;;;;;;;;;;;;;;;;;;4993107;28;19943;-70
2024/02/09 06:17:12;;;;;;;;;;;;;;;;;;4976323;28;19967;-69
2024/02/09 06:19:37;;;;;;;;;;;;;;;;;;4994621;28;19975;-76
2024/02/09 06:22:04;;;;;;;;;;;;;;;;;;4992987;28;20447;-70
2024/02/09 06:27:49;;;;;;;;;;;;;;;;;;4993154;28;19928;-68
2024/02/09 06:30:17;;;;;;;;;;;;;;;;;;4997881;28;20061;-69
2024/02/09 06:32:42;;;;;;;;;;;;;;;;;;4991770;28;19948;-69
2024/02/09 06:35:10;;;;;;;;;;;;;;;;;;4993649;28;20177;-69
2024/02/09 06:37:39;;;;;;;;;;;;;;;;;;4976204;28;20304;-69
2024/02/09 06:40:10;;;;;;;;;;;;;;;;;;4993911;28;19965;-70
2024/02/09 06:42:36;;;;;;;;;;;;;;;;;;4990530;28;20030;-73
2024/02/09 06:45:01;;;;;;;;;;;;;;;;;;4990423;28;19929;-70
2024/02/09 06:47:27;;;;;;;;;;;;;;;;;;4992767;28;19922;-71
2024/02/09 06:49:55;;;;;;;;;;;;;;;;;;4992716;28;19922;-68
2024/02/09 06:52:23;;;;;;;;;;;;;;;;;;4990565;28;20358;-69
2024/02/09 06:54:50;;;;;;;;;;;;;;;;;;4994893;28;20011;-69
2024/02/09 06:57:22;;;;;;;;;;;;;;;;;;4991064;28;19921;-69
2024/02/09 06:59:47;;;;;;;;;;;;;;;;;;5007932;28;19925;-69
2024/02/09 07:02:18;;;;;;;;;;;;;;;;;;4987259;28;19963;-69
2024/02/09 07:05:00;;;;;;;;;;;;;;;;;;5005440;28;20054;-68
2024/02/09 07:07:28;;;;;;;;;;;;;;;;;;4992786;28;19933;-69
2024/02/09 07:09:54;;;;;;;;;;;;;;;;;;4988119;28;19929;-68
2024/02/09 07:12:19;;;;;;;;;;;;;;;;;;4986514;28;20426;-68
2024/02/09 07:14:44;;;;;;;;;;;;;;;;;;4990065;28;19921;-71
2024/02/09 07:17:09;;;;;;;;;;;;;;;;;;4992357;28;20481;-69
2024/02/09 07:22:54;;;;;;;;;;;;;;;;;;4992284;28;19924;-68
2024/02/09 07:25:21;;;;;;;;;;;;;;;;;;4992652;28;19918;-68
2024/02/09 07:27:49;;;;;;;;;;;;;;;;;;4989902;28;19928;-71
2024/02/09 07:30:16;;;;;;;;;;;;;;;;;;4988081;28;20008;-70
2024/02/09 07:32:44;;;;;;;;;;;;;;;;;;4990743;28;19922;-68
2024/02/09 07:35:13;;;;;;;;;;;;;;;;;;4992479;28;19917;-69
2024/02/09 07:37:39;;;;;;;;;;;;;;;;;;4995821;28;19964;-68
2024/02/09 07:40:10;;;;;;;;;;;;;;;;;;4991243;28;19926;-68
2024/02/09 07:42:38;;;;;;;;;;;;;;;;;;4990727;28;19921;-67
2024/02/09 07:45:03;;;;;;;;;;;;;;;;;;4995221;28;19921;-68
2024/02/09 07:47:29;;;;;;;;;;;;;;;;;;4991551;28;19920;-69
2024/02/09 07:49:54;;;;;;;;;;;;;;;;;;4992943;28;20008;-68
2024/02/09 07:52:29;;;;;;;;;;;;;;;;;;4992386;28;19922;-70
2024/02/09 07:54:54;;;;;;;;;;;;;;;;;;5006389;28;19924;-69
2024/02/09 07:57:22;;;;;;;;;;;;;;;;;;4987996;28;20656;-68
2024/02/09 07:59:49;;;;;;;;;;;;;;;;;;4996050;28;19922;-67
2024/02/09 08:02:14;;;;;;;;;;;;;;;;;;4993647;28;19921;-69
2024/02/09 08:04:40;;;;;;;;;;;;;;;;;;4994448;28;19918;-69
2024/02/09 08:07:08;;;;;;;;;;;;;;;;;;4989714;28;20024;-69
2024/02/09 08:09:37;;;;;;;;;;;;;;;;;;4990859;28;19917;-69
2024/02/09 08:12:02;;;;;;;;;;;;;;;;;;4992168;28;19917;-70
2024/02/09 08:14:27;;;;;;;;;;;;;;;;;;4988097;28;20003;-69
2024/02/09 08:16:55;;;;;;;;;;;;;;;;;;4988830;28;19918;-69
2024/02/09 08:19:21;;;;;;;;;;;;;;;;;;4987540;28;20300;-69
2024/02/09 08:21:50;;;;;;;;;;;;;;;;;;4991703;28;21015;-70
2024/02/09 08:24:18;;;;;;;;;;;;;;;;;;4988912;28;19924;-71
2024/02/09 08:26:43;;;;;;;;;;;;;;;;;;4990901;28;19918;-69
2024/02/09 08:29:08;;;;;;;;;;;;;;;;;;4988500;28;20585;-73
2024/02/09 08:31:34;;;;;;;;;;;;;;;;;;4996108;28;19917;-69
2024/02/09 08:33:59;;;;;;;;;;;;;;;;;;4989491;28;20414;-69
2024/02/09 08:36:24;;;;;;;;;;;;;;;;;;4992824;28;19975;-70
2024/02/09 08:38:50;;;;;;;;;;;;;;;;;;4990997;28;19937;-69
2024/02/09 08:41:20;;;;;;;;;;;;;;;;;;4987976;28;19918;-69
2024/02/09 08:43:45;;;;;;;;;;;;;;;;;;4987366;28;19945;-70
2024/02/09 08:46:11;;;;;;;;;;;;;;;;;;4987746;28;19936;-69
2024/02/09 08:48:39;;;;;;;;;;;;;;;;;;4991743;28;19921;-69
2024/02/09 08:51:10;;;;;;;;;;;;;;;;;;4975805;28;20008;-69
2024/02/09 08:53:35;;;;;;;;;;;;;;;;;;4989694;28;19933;-69
2024/02/09 08:56:01;;;;;;;;;;;;;;;;;;4990132;28;19993;-70
2024/02/09 08:58:35;;;;;;;;;;;;;;;;;;4990849;28;20380;-71
2024/02/09 09:01:03;;;;;;;;;;;;;;;;;;4990982;28;19922;-70
2024/02/09 09:03:28;;;;;;;;;;;;;;;;;;4991240;28;20239;-68
2024/02/09 09:05:53;;;;;;;;;;;;;;;;;;4992208;28;19914;-69
2024/02/09 09:08:18;;;;;;;;;;;;;;;;;;4987131;28;20477;-69
2024/02/09 09:10:46;;;;;;;;;;;;;;;;;;4991538;28;19921;-70
2024/02/09 09:13:12;;;;;;;;;;;;;;;;;;4989547;28;19940;-69
2024/02/09 09:15:37;;;;;;;;;;;;;;;;;;4990164;28;19945;-69
2024/02/09 09:18:02;;;;;;;;;;;;;;;;;;4992577;28;19953;-70
2024/02/09 09:20:32;;;;;;;;;;;;;;;;;;4989659;28;21526;-70
2024/02/09 09:23:01;;;;;;;;;;;;;;;;;;4972919;28;19948;-70
2024/02/09 09:25:29;;;;;;;;;;;;;;;;;;4988374;28;19963;-69
2024/02/09 09:27:54;;;;;;;;;;;;;;;;;;4990960;28;20015;-69
2024/02/09 09:30:20;;;;;;;;;;;;;;;;;;4985828;28;20418;-68
2024/02/09 09:32:45;;;;;;;;;;;;;;;;;;4991601;28;19913;-68
2024/02/09 09:35:10;;;;;;;;;;;;;;;;;;5006304;28;19921;-68
2024/02/09 09:37:36;;;;;;;;;;;;;;;;;;4994000;28;20036;-67
2024/02/09 09:43:20;;;;;;;;;;;;;;;;;;4993444;28;19979;-69
2024/02/09 09:45:45;;;;;;;;;;;;;;;;;;4993275;28;20435;-68
2024/02/09 09:51:33;;;;;;;;;;;;;;;;;;4993657;28;19991;-68
2024/02/09 09:54:01;;;;;;;;;;;;;;;;;;5008551;28;20407;-68
2024/02/09 09:56:26;;;;;;;;;;;;;;;;;;4992510;28;20491;-68
2024/02/09 09:58:56;;;;;;;;;;;;;;;;;;4994355;28;19921;-70
2024/02/09 10:01:21;;;;;;;;;;;;;;;;;;4975773;28;19955;-69
2024/02/09 10:03:47;;;;;;;;;;;;;;;;;;4993880;28;19917;-68
2024/02/09 10:06:15;;;;;;;;;;;;;;;;;;4993688;28;19976;-68
2024/02/09 10:08:40;;;;;;;;;;;;;;;;;;4993542;28;20059;-69
2024/02/09 10:11:06;;;;;;;;;;;;;;;;;;4993308;28;19917;-69
2024/02/09 10:13:37;;;;;;;;;;;;;;;;;;4994615;28;19921;-70
2024/02/09 10:16:05;;;;;;;;;;;;;;;;;;4997312;28;20055;-70
2024/02/09 10:18:34;;;;;;;;;;;;;;;;;;4993898;28;20288;-70
2024/02/09 10:21:05;;;;;;;;;;;;;;;;;;4991013;28;21516;-69
2024/02/09 10:23:34;;;;;;;;;;;;;;;;;;4975531;28;19960;-69
2024/02/09 10:26:02;;;;;;;;;;;;;;;;;;4996507;28;20076;-69
2024/02/09 10:28:31;;;;;;;;;;;;;;;;;;4997883;28;19957;-69
2024/02/09 10:30:59;;;;;;;;;;;;;;;;;;4993578;28;20020;-70
2024/02/09 10:33:24;;;;;;;;;;;;;;;;;;4991684;28;19927;-68
2024/02/09 10:35:51;;;;;;;;;;;;;;;;;;4995994;28;19974;-69
2024/02/09 10:38:27;;;;;;;;;;;;;;;;;;4994180;28;19917;-70
2024/02/09 10:40:53;;;;;;;;;;;;;;;;;;4988931;28;20353;-67
2024/02/09 10:43:18;;;;;;;;;;;;;;;;;;4991705;28;20000;-70
2024/02/09 10:45:46;;;;;;;;;;;;;;;;;;4988374;28;20035;-71
2024/02/09 10:48:12;;;;;;;;;;;;;;;;;;4992851;28;19928;-69
2024/02/09 10:50:40;;;;;;;;;;;;;;;;;;4993653;28;20332;-69
2024/02/09 10:53:12;;;;;;;;;;;;;;;;;;4976619;28;19921;-68
2024/02/09 10:55:37;;;;;;;;;;;;;;;;;;4992400;28;20016;-69
2024/02/09 10:58:04;;;;;;;;;;;;;;;;;;4990078;28;19921;-68
2024/02/09 11:00:29;;;;;;;;;;;;;;;;;;4992808;28;20546;-68
2024/02/09 11:02:54;;;;;;;;;;;;;;;;;;4992548;28;19918;-68
2024/02/09 11:05:19;;;;;;;;;;;;;;;;;;4990833;28;19925;-69
2024/02/09 11:07:54;;;;;;;;;;;;;;;;;;4994482;28;19925;-69
2024/02/09 11:10:19;;;;;;;;;;;;;;;;;;4994277;28;19950;-70
2024/02/09 11:12:49;;;;;;;;;;;;;;;;;;4992057;28;19921;-68
2024/02/09 11:15:18;;;;;;;;;;;;;;;;;;4993937;28;19980;-68
2024/02/09 11:17:46;;;;;;;;;;;;;;;;;;4990364;28;19922;-69
2024/02/09 11:23:31;;;;;;;;;;;;;;;;;;4993259;28;19929;-68
2024/02/09 11:25:59;;;;;;;;;;;;;;;;;;4992961;28;19921;-68
2024/02/09 11:28:27;;;;;;;;;;;;;;;;;;4992561;28;20489;-71
2024/02/09 11:30:54;;;;;;;;;;;;;;;;;;4994521;28;20427;-71
2024/02/09 11:36:36;;;;;;;;;;;;;;;;;;4993380;28;19924;-70
2024/02/09 11:39:06;;;;;;;;;;;;;;;;;;4991240;28;19925;-70
2024/02/09 11:41:32;;;;;;;;;;;;;;;;;;4991688;28;19921;-70
2024/02/09 11:43:57;;;;;;;;;;;;;;;;;;4975117;28;19918;-71
2024/02/09 11:46:22;;;;;;;;;;;;;;;;;;4992178;28;20317;-70
2024/02/09 11:48:49;;;;;;;;;;;;;;;;;;4988526;28;20040;-71
2024/02/09 11:51:16;;;;;;;;;;;;;;;;;;4987639;28;20288;-72
2024/02/09 11:53:42;;;;;;;;;;;;;;;;;;4990184;28;19922;-72
2024/02/09 11:56:07;;;;;;;;;;;;;;;;;;4990628;28;19928;-71
2024/02/09 11:58:35;;;;;;;;;;;;;;;;;;4988250;28;20312;-72
2024/02/09 12:01:00;;;;;;;;;;;;;;;;;;4991384;28;19921;-72
2024/02/09 12:03:28;;;;;;;;;;;;;;;;;;4991057;28;19921;-72
2024/02/09 12:05:53;;;;;;;;;;;;;;;;;;4975775;28;19925;-72
2024/02/09 12:08:18;;;;;;;;;;;;;;;;;;4992111;28;19939;-72
2024/02/09 12:10:44;;;;;;;;;;;;;;;;;;4990887;28;20036;-73
2024/02/09 12:13:15;;;;;;;;;;;;;;;;;;4975714;28;19971;-73
2024/02/09 12:15:41;;;;;;;;;;;;;;;;;;4994399;28;19921;-74
2024/02/09 12:18:08;;;;;;;;;;;;;;;;;;4995831;28;19941;-73
2024/02/09 12:20:34;;;;;;;;;;;;;;;;;;4988889;28;20494;-75
2024/02/09 12:23:00;;;;;;;;;;;;;;;;;;4993292;28;19921;-73
2024/02/09 12:25:25;;;;;;;;;;;;;;;;;;4992310;28;19921;-73
2024/02/09 12:27:51;;;;;;;;;;;;;;;;;;4993667;28;19940;-74
2024/02/09 12:30:16;;;;;;;;;;;;;;;;;;4994485;28;20369;-74
2024/02/09 12:32:43;;;;;;;;;;;;;;;;;;4997089;28;20369;-75
2024/02/09 12:35:10;;;;;;;;;;;;;;;;;;5008468;28;21047;-75
2024/02/09 12:37:35;;;;;;;;;;;;;;;;;;4994215;28;19971;-75
2024/02/09 12:40:03;;;;;;;;;;;;;;;;;;4991836;28;20020;-76
2024/02/09 12:42:31;;;;;;;;;;;;;;;;;;4990552;28;19922;-76
2024/02/09 12:44:57;;;;;;;;;;;;;;;;;;4991917;28;19925;-76
2024/02/09 12:47:22;;;;;;;;;;;;;;;;;;4991968;28;19953;-75
2024/02/09 12:49:57;;;;;;;;;;;;;;;;;;4987813;28;20959;-76
2024/02/09 12:52:25;;;;;;;;;;;;;;;;;;4991103;28;19972;-75
2024/02/09 12:54:50;;;;;;;;;;;;;;;;;;4991447;28;20139;-74
2024/02/09 13:00:33;;;;;;;;;;;;;;;;;;4988766;28;19929;-72
2024/02/09 13:02:58;;;;;;;;;;;;;;;;;;4991997;28;19929;-72
2024/02/09 13:08:41;;;;;;;;;;;;;;;;;;4990016;28;19936;-72
2024/02/09 13:11:06;;;;;;;;;;;;;;;;;;4991820;28;19922;-71
2024/02/09 13:13:31;;;;;;;;;;;;;;;;;;4995640;28;20288;-73
2024/02/09 13:15:57;;;;;;;;;;;;;;;;;;4997066;28;20052;-72
2024/02/09 13:18:22;;;;;;;;;;;;;;;;;;4995717;28;19921;-72
2024/02/09 13:20:50;;;;;;;;;;;;;;;;;;4990695;28;19925;-71
2024/02/09 13:23:15;;;;;;;;;;;;;;;;;;4995624;28;19929;-71
2024/02/09 13:25:43;;;;;;;;;;;;;;;;;;4995072;28;20040;-71
2024/02/09 13:28:13;;;;;;;;;;;;;;;;;;4999861;28;19968;-71
2024/02/09 13:30:41;;;;;;;;;;;;;;;;;;4993754;28;19917;-70
2024/02/09 13:33:09;;;;;;;;;;;;;;;;;;4993714;28;19921;-70
2024/02/09 13:35:36;;;;;;;;;;;;;;;;;;4995881;28;20344;-71
2024/02/09 13:38:04;;;;;;;;;;;;;;;;;;4995029;28;20019;-71
2024/02/09 13:40:34;;;;;;;;;;;;;;;;;;4994458;28;19925;-72
2024/02/09 13:43:00;;;;;;;;;;;;;;;;;;4993968;28;19922;-71
2024/02/09 13:45:25;;;;;;;;;;;;;;;;;;4974099;28;19932;-72
2024/02/09 13:51:07;;;;;;;;;;;;;;;;;;4995525;28;20305;-72
2024/02/09 14:02:56;;;;;;;;;;;;;;;;;;4993812;28;20367;-72
2024/02/09 14:05:21;;;;;;;;;;;;;;;;;;5009651;28;20553;-72
2024/02/09 14:07:48;;;;;;;;;;;;;;;;;;4997659;28;20023;-73
2024/02/09 14:10:13;;;;;;;;;;;;;;;;;;4991180;28;20316;-73
2024/02/09 14:12:41;;;;;;;;;;;;;;;;;;4994203;28;20006;-73
2024/02/09 14:15:08;;;;;;;;;;;;;;;;;;4993247;28;20425;-73
2024/02/09 14:17:33;;;;;;;;;;;;;;;;;;4993767;28;21536;-73
2024/02/09 14:19:58;;;;;;;;;;;;;;;;;;4991675;28;19925;-73
2024/02/09 14:22:24;;;;;;;;;;;;;;;;;;4975486;28;20407;-73
2024/02/09 14:24:56;;;;;;;;;;;;;;;;;;4996052;28;19923;-73
2024/02/09 14:27:24;;;;;;;;;;;;;;;;;;4972702;28;19921;-73
2024/02/09 14:29:50;;;;;;;;;;;;;;;;;;4995677;28;19922;-73
2024/02/09 14:32:15;;;;;;;;;;;;;;;;;;4992057;28;20446;-73
2024/02/09 14:34:41;;;;;;;;;;;;;;;;;;4994863;28;20491;-73
2024/02/09 14:37:07;;;;;;;;;;;;;;;;;;4997448;28;19964;-73
2024/02/09 14:39:32;;;;;;;;;;;;;;;;;;4994351;28;20025;-74
2024/02/09 14:41:57;;;;;;;;;;;;;;;;;;4992499;28;19979;-72
2024/02/09 14:44:25;;;;;;;;;;;;;;;;;;4989142;28;19929;-73
2024/02/09 14:46:50;;;;;;;;;;;;;;;;;;4994572;28;19970;-73
2024/02/09 14:49:16;;;;;;;;;;;;;;;;;;4995745;28;20296;-73
2024/02/09 14:51:46;;;;;;;;;;;;;;;;;;4992001;28;20004;-72
2024/02/09 14:54:11;;;;;;;;;;;;;;;;;;4993657;28;20308;-74
2024/02/09 14:56:39;;;;;;;;;;;;;;;;;;4988055;28;19922;-72
2024/02/09 14:59:05;;;;;;;;;;;;;;;;;;4993465;28;20356;-72
2024/02/09 15:01:30;;;;;;;;;;;;;;;;;;4988546;28;19944;-71
2024/02/09 15:03:59;;;;;;;;;;;;;;;;;;4991006;28;20368;-73
2024/02/09 15:06:24;;;;;;;;;;;;;;;;;;4997315;28;20268;-73
2024/02/09 15:08:50;;;;;;;;;;;;;;;;;;4992474;28;20339;-73
2024/02/09 15:11:15;;;;;;;;;;;;;;;;;;4991279;28;20004;-73
2024/02/09 15:13:43;;;;;;;;;;;;;;;;;;4993937;28;19917;-73
2024/02/09 15:16:12;;;;;;;;;;;;;;;;;;4993532;28;19928;-72
2024/02/09 15:18:37;;;;;;;;;;;;;;;;;;5008549;28;19922;-72
2024/02/09 15:21:02;;;;;;;;;;;;;;;;;;4989001;28;19933;-73
2024/02/09 15:23:28;;;;;;;;;;;;;;;;;;4974156;28;19917;-73
2024/02/09 15:25:54;;;;;;;;;;;;;;;;;;4995087;28;20311;-72
2024/02/09 15:28:21;;;;;;;;;;;;;;;;;;4996014;28;19928;-73
2024/02/09 15:30:50;;;;;;;;;;;;;;;;;;4988361;28;20673;-73
2024/02/09 15:33:18;;;;;;;;;;;;;;;;;;4992567;28;19987;-72
2024/02/09 15:35:43;;;;;;;;;;;;;;;;;;4994639;28;20012;-72
2024/02/09 15:38:09;;;;;;;;;;;;;;;;;;4990734;28;19921;-72
2024/02/09 15:40:36;;;;;;;;;;;;;;;;;;4994115;28;19975;-72
2024/02/09 15:43:04;;;;;;;;;;;;;;;;;;4992222;28;19917;-72
2024/02/09 15:45:33;;;;;;;;;;;;;;;;;;4991891;28;20008;-72
2024/02/09 15:47:58;;;;;;;;;;;;;;;;;;4990443;28;19990;-73
2024/02/09 15:50:26;;;;;;;;;;;;;;;;;;4997137;28;19921;-73
2024/02/09 15:52:51;;;;;;;;;;;;;;;;;;4988284;28;19944;-73
2024/02/09 15:55:19;;;;;;;;;;;;;;;;;;4994797;28;19983;-73
2024/02/09 15:57:47;;;;;;;;;;;;;;;;;;4990627;28;20648;-73
2024/02/09 16:00:14;;;;;;;;;;;;;;;;;;4992888;28;20179;-73
2024/02/09 16:02:39;;;;;;;;;;;;;;;;;;4990116;28;20017;-72
2024/02/09 16:05:10;;;;;;;;;;;;;;;;;;4992876;28;19924;-73
2024/02/09 16:07:35;;;;;;;;;;;;;;;;;;4994314;28;19929;-72
2024/02/09 16:10:03;;;;;;;;;;;;;;;;;;4993583;28;19918;-73
2024/02/09 16:15:48;;;;;;;;;;;;;;;;;;4992870;28;19962;-73
2024/02/09 16:18:15;;;;;;;;;;;;;;;;;;4992430;28;19927;-72
2024/02/09 16:20:41;;;;;;;;;;;;;;;;;;4970887;28;19921;-72
2024/02/09 16:23:06;;;;;;;;;;;;;;;;;;5005866;28;19921;-73
2024/02/09 16:25:31;;;;;;;;;;;;;;;;;;4994000;28;19917;-73
2024/02/09 16:27:59;;;;;;;;;;;;;;;;;;4991359;28;19921;-73
2024/02/09 16:30:27;;;;;;;;;;;;;;;;;;4989836;28;19917;-73
2024/02/09 16:32:52;;;;;;;;;;;;;;;;;;4989598;28;19928;-73
2024/02/09 16:35:21;;;;;;;;;;;;;;;;;;4990921;28;20343;-74
2024/02/09 16:37:46;;;;;;;;;;;;;;;;;;4990084;28;19928;-73
2024/02/09 16:40:12;;;;;;;;;;;;;;;;;;4989882;28;19955;-73
2024/02/09 16:42:40;;;;;;;;;;;;;;;;;;4990337;28;19932;-72
2024/02/09 16:45:08;;;;;;;;;;;;;;;;;;4991673;28;20003;-73
2024/02/09 16:47:36;;;;;;;;;;;;;;;;;;4992974;28;21478;-72
2024/02/09 16:50:02;;;;;;;;;;;;;;;;;;4995904;28;19932;-72
2024/02/09 16:52:27;;;;;;;;;;;;;;;;;;4996272;28;19928;-73
2024/02/09 16:54:52;;;;;;;;;;;;;;;;;;4994980;28;19922;-73
2024/02/09 16:57:20;;;;;;;;;;;;;;;;;;4993500;28;19932;-73
2024/02/09 16:59:45;;;;;;;;;;;;;;;;;;4994610;28;19968;-72
2024/02/09 17:02:14;;;;;;;;;;;;;;;;;;4992936;28;19967;-73
2024/02/09 17:04:40;;;;;;;;;;;;;;;;;;4994659;28;19966;-73
2024/02/09 17:07:05;;;;;;;;;;;;;;;;;;4994353;28;19932;-73
2024/02/09 17:09:33;;;;;;;;;;;;;;;;;;4991004;28;19980;-72
2024/02/09 17:11:59;;;;;;;;;;;;;;;;;;4976763;28;20012;-72
2024/02/09 17:14:27;;;;;;;;;;;;;;;;;;4998931;28;19917;-72
2024/02/09 17:20:09;;;;;;;;;;;;;;;;;;4995155;28;20541;-72
2024/02/09 17:22:34;;;;;;;;;;;;;;;;;;4989616;28;19944;-71
2024/02/09 17:24:59;;;;;;;;;;;;;;;;;;4996893;28;19922;-72
2024/02/09 17:27:26;;;;;;;;;;;;;;;;;;4995987;28;19922;-72
2024/02/09 17:29:51;;;;;;;;;;;;;;;;;;4997647;28;20373;-73
2024/02/09 17:32:19;;;;;;;;;;;;;;;;;;4996166;28;20304;-73
2024/02/09 17:34:44;;;;;;;;;;;;;;;;;;4991012;28;19928;-73
2024/02/09 17:37:12;;;;;;;;;;;;;;;;;;4994615;28;19921;-73
2024/02/09 17:39:40;;;;;;;;;;;;;;;;;;4991647;28;19948;-73
2024/02/09 17:42:05;;;;;;;;;;;;;;;;;;4993035;28;19921;-73
2024/02/09 17:44:34;;;;;;;;;;;;;;;;;;4993576;28;20016;-72
2024/02/09 17:47:03;;;;;;;;;;;;;;;;;;4989217;28;19979;-72
2024/02/09 17:49:31;;;;;;;;;;;;;;;;;;4994412;28;19924;-73
2024/02/09 17:51:56;;;;;;;;;;;;;;;;;;4991916;28;19917;-73
2024/02/09 17:54:24;;;;;;;;;;;;;;;;;;4976167;28;19917;-72
2024/02/09 17:56:49;;;;;;;;;;;;;;;;;;4993629;28;19922;-73
2024/02/09 17:59:17;;;;;;;;;;;;;;;;;;4978329;28;19967;-72
2024/02/09 18:01:48;;;;;;;;;;;;;;;;;;4973684;28;20327;-72
2024/02/09 18:04:17;;;;;;;;;;;;;;;;;;4994075;28;19979;-73
2024/02/09 18:10:01;;;;;;;;;;;;;;;;;;4994218;28;19972;-72
2024/02/09 18:12:26;;;;;;;;;;;;;;;;;;4988110;28;20218;-73
2024/02/09 18:14:54;;;;;;;;;;;;;;;;;;4993338;28;19949;-73
2024/02/09 18:17:22;;;;;;;;;;;;;;;;;;4993585;28;19921;-73
2024/02/09 18:19:47;;;;;;;;;;;;;;;;;;4995030;28;20324;-73
2024/02/09 18:22:17;;;;;;;;;;;;;;;;;;4990863;28;19995;-73
2024/02/09 18:24:48;;;;;;;;;;;;;;;;;;4990658;28;20288;-74
2024/02/09 18:27:16;;;;;;;;;;;;;;;;;;4986523;28;19921;-73
2024/02/09 18:29:47;;;;;;;;;;;;;;;;;;4977289;28;19983;-74
2024/02/09 18:32:18;;;;;;;;;;;;;;;;;;4992184;28;19922;-73
2024/02/09 18:34:43;;;;;;;;;;;;;;;;;;4995776;28;19945;-73
2024/02/09 18:37:12;;;;;;;;;;;;;;;;;;5006810;28;19917;-74
2024/02/09 18:39:37;;;;;;;;;;;;;;;;;;4987455;28;20380;-74
2024/02/09 18:42:05;;;;;;;;;;;;;;;;;;4987451;28;20614;-74
2024/02/09 18:44:35;;;;;;;;;;;;;;;;;;4991540;28;19918;-73
2024/02/09 18:47:02;;;;;;;;;;;;;;;;;;4993607;28;19967;-72
2024/02/09 18:49:28;;;;;;;;;;;;;;;;;;4976198;28;19928;-74
2024/02/09 18:51:53;;;;;;;;;;;;;;;;;;4992349;28;19967;-74
2024/02/09 18:54:21;;;;;;;;;;;;;;;;;;4992582;28;19918;-73
2024/02/09 18:56:49;;;;;;;;;;;;;;;;;;4991288;28;19922;-72
2024/02/09 18:59:14;;;;;;;;;;;;;;;;;;4993420;28;20120;-75
2024/02/09 19:01:42;;;;;;;;;;;;;;;;;;4992822;28;19921;-73
2024/02/09 19:04:07;;;;;;;;;;;;;;;;;;5006116;28;19989;-73
2024/02/09 19:06:33;;;;;;;;;;;;;;;;;;4988970;28;20016;-74
2024/02/09 19:08:59;;;;;;;;;;;;;;;;;;4991560;28;19992;-74
2024/02/09 19:11:27;;;;;;;;;;;;;;;;;;4992930;28;19927;-74
2024/02/09 19:13:54;;;;;;;;;;;;;;;;;;4991366;28;20296;-74
2024/02/09 19:16:21;;;;;;;;;;;;;;;;;;4996114;28;20084;-74
2024/02/09 19:18:46;;;;;;;;;;;;;;;;;;4994648;28;20888;-74
2024/02/09 19:21:13;;;;;;;;;;;;;;;;;;4991723;28;20164;-74
2024/02/09 19:23:40;;;;;;;;;;;;;;;;;;4992165;28;19917;-74
2024/02/09 19:29:23;;;;;;;;;;;;;;;;;;4992018;28;19928;-74
2024/02/09 19:31:57;;;;;;;;;;;;;;;;;;4991091;28;19999;-73
2024/02/09 19:34:28;;;;;;;;;;;;;;;;;;4993048;28;19932;-73
2024/02/09 19:36:53;;;;;;;;;;;;;;;;;;4991003;28;20291;-74